Time;durP1;ratioP1;P1;durP2;ratioP2;P2;SDS_P1;SDS_P2;PMS_P1;PMS_P2;Temp;Humidity;BMP_temperature;BMP_pressure;BME280_temperature;BME280_humidity;BME280_pressure;Samples;Min_cycle;Max_cycle;Signal;HPM_P1;HPM_P2
2023/05/02 00:00:15;;;;;;;86.72;8.50;;;;;;;;;;5030265;28;20045;-68
2023/05/02 00:02:41;;;;;;;77.40;8.90;;;;;;;;;;5028931;28;20053;-68
2023/05/02 00:05:10;;;;;;;87.07;8.98;;;;;;;;;;5029908;28;20727;-68
2023/05/02 00:07:37;;;;;;;79.93;9.07;;;;;;;;;;5029453;28;20045;-67
2023/05/02 00:10:04;;;;;;;71.72;8.27;;;;;;;;;;5030031;28;20487;-68
2023/05/02 00:12:31;;;;;;;90.35;9.05;;;;;;;;;;5029232;28;20672;-68
2023/05/02 00:14:58;;;;;;;87.88;8.88;;;;;;;;;;5030775;28;20568;-67
2023/05/02 00:17:25;;;;;;;96.07;9.77;;;;;;;;;;5029717;28;20629;-67
2023/05/02 00:19:52;;;;;;;44.53;6.53;;;;;;;;;;5029662;28;20647;-68
2023/05/02 00:22:18;;;;;;;61.47;7.90;;;;;;;;;;5029935;28;20116;-67
2023/05/02 00:24:45;;;;;;;83.90;8.60;;;;;;;;;;5011768;28;20394;-67
2023/05/02 00:27:11;;;;;;;65.07;7.57;;;;;;;;;;5030080;28;20052;-67
2023/05/02 00:29:38;;;;;;;82.80;8.65;;;;;;;;;;5030211;28;20627;-68
2023/05/02 00:32:04;;;;;;;107.32;10.20;;;;;;;;;;5016324;28;20418;-68
2023/05/02 00:34:31;;;;;;;78.18;8.25;;;;;;;;;;5029288;28;20042;-68
2023/05/02 00:36:58;;;;;;;73.35;8.23;;;;;;;;;;5029261;28;20065;-68
2023/05/02 00:39:24;;;;;;;160.45;13.27;;;;;;;;;;5028598;28;20706;-67
2023/05/02 00:41:57;;;;;;;73.07;8.20;;;;;;;;;;5012529;28;20494;-68
2023/05/02 00:44:24;;;;;;;71.68;7.75;;;;;;;;;;5027484;28;20051;-66
2023/05/02 00:46:52;;;;;;;81.32;8.82;;;;;;;;;;5021536;28;20095;-67
2023/05/02 00:49:18;;;;;;;104.22;10.55;;;;;;;;;;5011174;28;20045;-67
2023/05/02 00:51:45;;;;;;;67.50;7.47;;;;;;;;;;5029327;28;20545;-66
2023/05/02 00:54:12;;;;;;;90.70;9.20;;;;;;;;;;5029213;28;20045;-68
2023/05/02 00:56:39;;;;;;;77.28;8.35;;;;;;;;;;5022077;28;20126;-67
2023/05/02 00:59:07;;;;;;;70.75;8.02;;;;;;;;;;5028652;28;20045;-67
2023/05/02 01:01:40;;;;;;;139.48;12.65;;;;;;;;;;5028011;28;20785;-66
2023/05/02 01:04:16;;;;;;;41.90;6.22;;;;;;;;;;5021726;28;20044;-67
2023/05/02 01:06:43;;;;;;;100.07;9.50;;;;;;;;;;5028078;28;20038;-67
2023/05/02 01:09:30;;;;;;;83.68;8.60;;;;;;;;;;5011915;28;20046;-67
2023/05/02 01:12:02;;;;;;;98.50;9.38;;;;;;;;;;4998903;28;20131;-67
2023/05/02 01:14:29;;;;;;;71.03;7.75;;;;;;;;;;5029098;28;20052;-67
2023/05/02 01:16:57;;;;;;;96.85;9.57;;;;;;;;;;5028529;28;20048;-67
2023/05/02 01:19:28;;;;;;;100.50;9.85;;;;;;;;;;5028317;28;20045;-67
2023/05/02 01:21:55;;;;;;;66.47;7.28;;;;;;;;;;5006953;28;20557;-68
2023/05/02 01:24:26;;;;;;;157.10;12.98;;;;;;;;;;4999775;28;20544;-68
2023/05/02 01:27:08;;;;;;;76.38;7.63;;;;;;;;;;5027541;28;20050;-67
2023/05/02 01:29:36;;;;;;;91.57;9.02;;;;;;;;;;5010551;28;20053;-67
2023/05/02 01:32:03;;;;;;;91.13;8.32;;;;;;;;;;5018893;28;20054;-68
2023/05/02 01:34:30;;;;;;;83.22;8.35;;;;;;;;;;5028133;28;20045;-68
2023/05/02 01:36:58;;;;;;;80.68;7.95;;;;;;;;;;5025955;28;20045;-67
2023/05/02 01:39:25;;;;;;;111.05;10.20;;;;;;;;;;5027928;28;20124;-67
2023/05/02 01:41:54;;;;;;;94.32;8.90;;;;;;;;;;5024356;28;20140;-67
2023/05/02 01:44:22;;;;;;;56.92;6.40;;;;;;;;;;5026223;28;20061;-68
2023/05/02 01:46:50;;;;;;;65.85;7.35;;;;;;;;;;5027491;28;20459;-68
2023/05/02 01:49:18;;;;;;;66.65;7.38;;;;;;;;;;5028129;28;20041;-68
2023/05/02 01:51:49;;;;;;;115.45;10.23;;;;;;;;;;5009923;28;20048;-67
2023/05/02 01:54:16;;;;;;;71.22;7.40;;;;;;;;;;5008932;28;20096;-68
2023/05/02 01:56:44;;;;;;;41.20;5.70;;;;;;;;;;5019106;28;20136;-67
2023/05/02 01:59:12;;;;;;;80.45;8.32;;;;;;;;;;5017558;28;20046;-68
2023/05/02 02:01:42;;;;;;;333.60;25.50;;;;;;;;;;5009150;22;20059;-71
2023/05/02 02:04:11;;;;;;;70.65;7.72;;;;;;;;;;5010575;28;20521;-71
2023/05/02 02:06:38;;;;;;;83.28;8.30;;;;;;;;;;5027312;28;20054;-72
2023/05/02 02:09:05;;;;;;;112.30;10.32;;;;;;;;;;5028172;28;20049;-72
2023/05/02 02:11:36;;;;;;;42.10;5.47;;;;;;;;;;5008637;28;20049;-72
2023/05/02 02:14:09;;;;;;;94.80;9.73;;;;;;;;;;5023573;28;20487;-71
2023/05/02 02:16:36;;;;;;;;;;;;;;;;;;5006608;28;20052;-71
2023/05/02 02:19:07;;;;;;;71.60;7.18;;;;;;;;;;5018371;28;19936;-71
2023/05/02 02:21:35;;;;;;;114.50;10.55;;;;;;;;;;5027200;28;20042;-71
2023/05/02 02:24:02;;;;;;;59.67;6.85;;;;;;;;;;5009370;28;20443;-72
2023/05/02 02:26:29;;;;;;;111.32;9.80;;;;;;;;;;5023729;28;20076;-71
2023/05/02 02:28:55;;;;;;;81.97;8.23;;;;;;;;;;5009160;28;20128;-71
2023/05/02 02:31:24;;;;;;;67.45;6.72;;;;;;;;;;5026800;28;20037;-71
2023/05/02 02:33:51;;;;;;;80.03;9.32;;;;;;;;;;5027444;28;20202;-72
2023/05/02 02:36:20;;;;;;;145.93;12.35;;;;;;;;;;5031124;28;20048;-71
2023/05/02 02:38:51;;;;;;;50.00;6.13;;;;;;;;;;5031696;28;20045;-70
2023/05/02 02:41:18;;;;;;;80.43;7.88;;;;;;;;;;5031151;28;20068;-70
2023/05/02 02:43:50;;;;;;;100.82;8.93;;;;;;;;;;5009725;28;20463;-71
2023/05/02 02:46:26;;;;;;;48.88;5.70;;;;;;;;;;5027888;28;20049;-70
2023/05/02 02:49:14;;;;;;;82.15;8.20;;;;;;;;;;5005123;28;20056;-70
2023/05/02 02:51:44;;;;;;;77.95;7.55;;;;;;;;;;4989555;28;20136;-69
2023/05/02 02:54:19;;;;;;;99.32;9.48;;;;;;;;;;5027025;28;20057;-71
2023/05/02 02:57:17;;;;;;;79.03;8.30;;;;;;;;;;5013887;28;20072;-70
2023/05/02 02:59:56;;;;;;;92.63;8.50;;;;;;;;;;5022178;28;20068;-72
2023/05/02 03:02:27;;;;;;;80.80;8.70;;;;;;;;;;5028194;28;20136;-72
2023/05/02 03:04:54;;;;;;;67.03;6.80;;;;;;;;;;5029245;28;20572;-71
2023/05/02 03:07:22;;;;;;;43.28;5.70;;;;;;;;;;5029063;28;20045;-72
2023/05/02 03:09:49;;;;;;;83.47;8.02;;;;;;;;;;5012574;28;20135;-71
2023/05/02 03:12:20;;;;;;;138.02;11.93;;;;;;;;;;5012964;28;20115;-71
2023/05/02 03:14:48;;;;;;;72.40;7.45;;;;;;;;;;5030108;28;20147;-71
2023/05/02 03:17:16;;;;;;;69.25;7.45;;;;;;;;;;5020057;28;20041;-72
2023/05/02 03:19:42;;;;;;;37.75;5.65;;;;;;;;;;5020596;28;20072;-72
2023/05/02 03:22:10;;;;;;;65.32;6.63;;;;;;;;;;5012478;28;20033;-72
2023/05/02 03:24:37;;;;;;;136.45;11.52;;;;;;;;;;5012521;28;20050;-72
2023/05/02 03:27:04;;;;;;;83.80;8.50;;;;;;;;;;5010275;28;20276;-71
2023/05/02 03:29:37;;;;;;;113.15;9.75;;;;;;;;;;5030459;28;20057;-72
2023/05/02 03:32:04;;;;;;;92.63;8.70;;;;;;;;;;5022746;28;20388;-71
2023/05/02 03:34:31;;;;;;;72.13;7.72;;;;;;;;;;5028813;28;20553;-72
2023/05/02 03:36:59;;;;;;;111.43;10.88;;;;;;;;;;5012642;28;20044;-71
2023/05/02 03:39:26;;;;;;;131.32;12.57;;;;;;;;;;5029110;28;20092;-72
2023/05/02 03:41:53;;;;;;;64.45;7.10;;;;;;;;;;5012793;28;20057;-72
2023/05/02 03:44:22;;;;;;;84.32;8.55;;;;;;;;;;5021748;28;20136;-70
2023/05/02 03:46:48;;;;;;;115.40;10.35;;;;;;;;;;5011216;28;20043;-71
2023/05/02 03:49:15;;;;;;;50.45;5.40;;;;;;;;;;5022909;28;20037;-72
2023/05/02 03:51:44;;;;;;;66.15;7.13;;;;;;;;;;4994420;28;20041;-72
2023/05/02 03:54:12;;;;;;;91.82;8.55;;;;;;;;;;5012020;28;20049;-73
2023/05/02 03:56:41;;;;;;;93.43;9.50;;;;;;;;;;5012497;28;20553;-73
2023/05/02 03:59:33;;;;;;;123.68;10.90;;;;;;;;;;5018680;28;20533;-73
2023/05/02 04:02:06;;;;;;;78.88;7.88;;;;;;;;;;5010372;28;20083;-72
2023/05/02 04:04:40;;;;;;;;;;;;;;;;;;5013279;28;20073;-72
2023/05/02 04:07:14;;;;;;;59.53;6.93;;;;;;;;;;5012745;28;19929;-72
2023/05/02 04:09:41;;;;;;;80.30;8.40;;;;;;;;;;5025891;28;20088;-71
2023/05/02 04:12:10;;;;;;;91.90;8.95;;;;;;;;;;5009352;28;20046;-70
2023/05/02 04:14:40;;;;;;;97.47;9.43;;;;;;;;;;5011745;28;20128;-71
2023/05/02 04:17:07;;;;;;;76.13;7.53;;;;;;;;;;5017523;28;20057;-72
2023/05/02 04:19:52;;;;;;;47.60;5.78;;;;;;;;;;5026387;28;20052;-72
2023/05/02 04:22:22;;;;;;;81.22;8.23;;;;;;;;;;5010874;28;20046;-72
2023/05/02 04:24:53;;;;;;;341.35;23.10;;;;;;;;;;5011331;28;20056;-73
2023/05/02 04:27:21;;;;;;;123.72;11.18;;;;;;;;;;5011193;28;20049;-71
2023/05/02 04:29:48;;;;;;;90.72;8.93;;;;;;;;;;5028364;28;20045;-72
2023/05/02 04:32:16;;;;;;;59.45;6.47;;;;;;;;;;5027187;28;20055;-72
2023/05/02 04:34:44;;;;;;;63.97;6.97;;;;;;;;;;5010467;28;20079;-71
2023/05/02 04:37:11;;;;;;;80.60;8.18;;;;;;;;;;5010882;28;20080;-71
2023/05/02 04:39:39;;;;;;;57.75;7.15;;;;;;;;;;5011647;28;20136;-72
2023/05/02 04:42:12;;;;;;;76.65;7.63;;;;;;;;;;5008706;28;20506;-72
2023/05/02 04:44:47;;;;;;;77.50;8.80;;;;;;;;;;5005403;28;20055;-71
2023/05/02 04:47:14;;;;;;;47.92;6.15;;;;;;;;;;4994702;28;20144;-71
2023/05/02 04:49:42;;;;;;;140.70;12.75;;;;;;;;;;5029156;28;20038;-71
2023/05/02 04:52:09;;;;;;;99.70;10.02;;;;;;;;;;5028554;28;20558;-71
2023/05/02 04:54:36;;;;;;;96.22;9.10;;;;;;;;;;5028821;28;20080;-70
2023/05/02 04:57:05;;;;;;;93.80;9.63;;;;;;;;;;5009934;28;20049;-70
2023/05/02 04:59:33;;;;;;;77.43;8.25;;;;;;;;;;5010214;28;20099;-71
2023/05/02 05:02:01;;;;;;;92.28;8.65;;;;;;;;;;5009278;28;20534;-73
2023/05/02 05:04:28;;;;;;;168.13;13.32;;;;;;;;;;5010523;28;20072;-71
2023/05/02 05:06:55;;;;;;;89.45;8.70;;;;;;;;;;5028567;28;20068;-71
2023/05/02 05:09:24;;;;;;;80.18;7.93;;;;;;;;;;5017059;28;20491;-71
2023/05/02 05:11:52;;;;;;;146.57;13.02;;;;;;;;;;5019368;28;20052;-70
2023/05/02 05:14:19;;;;;;;104.53;9.48;;;;;;;;;;5007381;28;20402;-71
2023/05/02 05:16:50;;;;;;;68.00;7.82;;;;;;;;;;5001661;28;20045;-71
2023/05/02 05:19:17;;;;;;;169.23;12.95;;;;;;;;;;5009624;28;20729;-71
2023/05/02 05:21:43;;;;;;;79.80;8.23;;;;;;;;;;5005931;28;20056;-71
2023/05/02 05:24:12;;;;;;;57.25;7.20;;;;;;;;;;5011013;28;20045;-71
2023/05/02 05:26:38;;;;;;;103.90;9.13;;;;;;;;;;5018350;28;20052;-71
2023/05/02 05:29:06;;;;;;;80.03;9.35;;;;;;;;;;4986085;28;20068;-72
2023/05/02 05:31:37;;;;;;;72.68;7.82;;;;;;;;;;5009619;28;20135;-71
2023/05/02 05:34:05;;;;;;;127.20;11.50;;;;;;;;;;5027992;28;21235;-72
2023/05/02 05:36:32;;;;;;;84.55;9.32;;;;;;;;;;5002909;28;20087;-72
2023/05/02 05:39:00;;;;;;;77.53;8.13;;;;;;;;;;5011545;28;20064;-72
2023/05/02 05:41:29;;;;;;;93.95;9.65;;;;;;;;;;5023565;28;20145;-72
2023/05/02 05:44:00;;;;;;;75.47;9.05;;;;;;;;;;5009065;28;20049;-71
2023/05/02 05:46:28;;;;;;;124.63;11.93;;;;;;;;;;5004822;28;20055;-72
2023/05/02 05:48:56;;;;;;;125.95;12.38;;;;;;;;;;5023884;28;20048;-71
2023/05/02 05:51:23;;;;;;;77.70;9.25;;;;;;;;;;5026903;28;20052;-72
2023/05/02 05:53:49;;;;;;;65.43;7.45;;;;;;;;;;5011165;28;20495;-69
2023/05/02 05:56:17;;;;;;;94.60;10.50;;;;;;;;;;5007446;28;20056;-70
2023/05/02 05:58:50;;;;;;;53.20;7.20;;;;;;;;;;5019162;28;20486;-70
2023/05/02 06:01:17;;;;;;;1295.20;108.95;;;;;;;;;;5027832;28;20045;-70
2023/05/02 06:03:46;;;;;;;81.10;9.48;;;;;;;;;;5006420;28;20073;-70
2023/05/02 06:06:15;;;;;;;46.58;7.07;;;;;;;;;;5010767;28;20060;-69
2023/05/02 06:08:41;;;;;;;53.20;7.57;;;;;;;;;;5028407;28;20048;-74
2023/05/02 06:11:09;;;;;;;81.28;8.68;;;;;;;;;;5016383;28;20069;-76
2023/05/02 06:13:36;;;;;;;62.90;8.50;;;;;;;;;;5027608;28;20132;-73
2023/05/02 06:16:04;;;;;;;192.18;15.70;;;;;;;;;;5028369;28;20072;-72
2023/05/02 06:18:30;;;;;;;100.95;10.52;;;;;;;;;;5010135;28;20045;-72
2023/05/02 06:20:57;;;;;;;79.93;8.85;;;;;;;;;;5029146;28;20064;-67
2023/05/02 06:23:23;;;;;;;72.18;8.25;;;;;;;;;;5027906;28;20386;-71
2023/05/02 06:25:50;;;;;;;119.32;10.27;;;;;;;;;;5028195;28;20041;-71
2023/05/02 06:28:16;;;;;;;76.45;8.45;;;;;;;;;;5009985;28;20123;-73
2023/05/02 06:30:43;;;;;;;62.95;7.97;;;;;;;;;;5027333;28;20124;-71
2023/05/02 06:33:11;;;;;;;81.68;55.63;;;;;;;;;;5028629;28;20104;-72
2023/05/02 06:35:37;;;;;;;77.68;47.85;;;;;;;;;;5027659;28;20107;-71
2023/05/02 06:38:04;;;;;;;229.98;205.15;;;;;;;;;;5027385;28;20045;-72
2023/05/02 06:40:33;;;;;;;222.18;201.23;;;;;;;;;;5028022;28;20548;-71
2023/05/02 06:42:59;;;;;;;265.85;240.20;;;;;;;;;;5027223;28;20100;-71
2023/05/02 06:45:26;;;;;;;246.80;221.15;;;;;;;;;;5025404;28;20111;-70
2023/05/02 06:47:53;;;;;;;219.82;199.98;;;;;;;;;;5026072;28;20081;-73
2023/05/02 06:50:19;;;;;;;220.93;203.20;;;;;;;;;;5010044;28;20091;-72
2023/05/02 06:52:46;;;;;;;231.05;205.95;;;;;;;;;;5009181;28;20499;-70
2023/05/02 06:55:13;;;;;;;231.45;211.35;;;;;;;;;;5027284;28;20112;-70
2023/05/02 06:57:40;;;;;;;226.30;203.35;;;;;;;;;;5018373;28;20056;-72
2023/05/02 07:00:06;;;;;;;265.27;239.63;;;;;;;;;;5027894;28;20045;-71
2023/05/02 07:02:33;;;;;;;343.98;314.25;;;;;;;;;;5026530;28;20060;-70
2023/05/02 07:04:59;;;;;;;219.95;199.90;;;;;;;;;;5025583;28;20107;-73
2023/05/02 07:07:26;;;;;;;173.35;154.45;;;;;;;;;;5026640;28;20456;-73
2023/05/02 07:09:52;;;;;;;161.80;129.98;;;;;;;;;;5026693;28;20041;-72
2023/05/02 07:12:20;;;;;;;131.82;119.68;;;;;;;;;;5027238;28;20045;-72
2023/05/02 07:14:46;;;;;;;126.80;102.57;;;;;;;;;;5027591;28;20033;-71
2023/05/02 07:17:14;;;;;;;171.35;97.15;;;;;;;;;;5026718;28;20183;-71
2023/05/02 07:19:41;;;;;;;120.38;95.22;;;;;;;;;;5027058;28;20046;-70
2023/05/02 07:22:10;;;;;;;109.90;86.75;;;;;;;;;;5011904;28;20041;-70
2023/05/02 07:24:40;;;;;;;138.65;71.55;;;;;;;;;;5030378;28;20499;-72
2023/05/02 07:27:10;;;;;;;102.85;79.78;;;;;;;;;;5031375;28;20053;-71
2023/05/02 07:29:37;;;;;;;125.38;69.10;;;;;;;;;;5012171;28;21785;-70
2023/05/02 07:32:04;;;;;;;168.18;77.97;;;;;;;;;;5030511;28;20053;-69
2023/05/02 07:34:31;;;;;;;181.30;87.22;;;;;;;;;;5012813;28;20072;-71
2023/05/02 07:36:58;;;;;;;124.88;72.22;;;;;;;;;;5029951;28;20407;-71
2023/05/02 07:39:24;;;;;;;145.23;81.40;;;;;;;;;;5012644;28;20457;-71
2023/05/02 07:41:51;;;;;;;115.72;82.10;;;;;;;;;;5013429;28;20049;-71
2023/05/02 07:44:18;;;;;;;277.23;79.80;;;;;;;;;;5012396;28;20049;-72
2023/05/02 07:46:44;;;;;;;117.80;77.43;;;;;;;;;;5028605;28;20124;-71
2023/05/02 07:49:11;;;;;;;125.88;112.47;;;;;;;;;;5030477;28;20045;-72
2023/05/02 07:51:38;;;;;;;195.27;92.97;;;;;;;;;;5029819;28;20561;-71
2023/05/02 07:54:18;;;;;;;104.30;64.68;;;;;;;;;;5023550;28;20487;-71
2023/05/02 07:56:46;;;;;;;95.45;56.10;;;;;;;;;;5005398;28;20053;-73
2023/05/02 07:59:12;;;;;;;122.40;52.85;;;;;;;;;;4995160;28;20480;-72
2023/05/02 08:01:40;;;;;;;154.15;55.40;;;;;;;;;;5028016;28;20585;-72
2023/05/02 08:04:08;;;;;;;104.50;51.10;;;;;;;;;;5030114;28;20084;-70
2023/05/02 08:06:35;;;;;;;154.15;45.55;;;;;;;;;;5028784;28;20053;-71
2023/05/02 08:09:02;;;;;;;88.90;41.33;;;;;;;;;;5012866;28;20054;-72
2023/05/02 08:11:28;;;;;;;100.60;45.78;;;;;;;;;;5011500;28;20045;-71
2023/05/02 08:13:55;;;;;;;183.20;50.05;;;;;;;;;;5029086;28;20575;-71
2023/05/02 08:16:21;;;;;;;109.85;34.33;;;;;;;;;;5028234;28;20120;-71
2023/05/02 08:18:48;;;;;;;108.63;37.22;;;;;;;;;;5029505;28;20467;-70
2023/05/02 08:21:14;;;;;;;75.43;29.98;;;;;;;;;;5012671;28;20087;-71
2023/05/02 08:23:45;;;;;;;123.05;28.45;;;;;;;;;;5030066;28;20037;-71
2023/05/02 08:26:11;;;;;;;121.75;35.83;;;;;;;;;;5019701;28;20060;-71
2023/05/02 08:28:38;;;;;;;107.70;31.23;;;;;;;;;;5011201;28;20553;-70
2023/05/02 08:31:04;;;;;;;94.10;30.33;;;;;;;;;;5029133;28;20034;-71
2023/05/02 08:33:31;;;;;;;106.93;28.52;;;;;;;;;;5011251;28;20132;-72
2023/05/02 08:35:59;;;;;;;109.55;28.42;;;;;;;;;;5029438;28;20128;-71
2023/05/02 08:38:25;;;;;;;97.50;25.83;;;;;;;;;;5029520;28;20140;-72
2023/05/02 08:40:52;;;;;;;150.38;29.42;;;;;;;;;;5028555;28;20459;-70
2023/05/02 08:43:19;;;;;;;78.63;22.83;;;;;;;;;;5029137;28;20091;-71
2023/05/02 08:45:48;;;;;;;105.57;22.27;;;;;;;;;;5029630;28;20041;-70
2023/05/02 08:48:16;;;;;;;63.75;18.75;;;;;;;;;;5026448;28;20037;-71
2023/05/02 08:50:44;;;;;;;122.32;22.65;;;;;;;;;;5028345;28;20049;-70
2023/05/02 08:53:12;;;;;;;57.25;15.48;;;;;;;;;;5008713;28;20034;-70
2023/05/02 08:55:39;;;;;;;95.75;19.63;;;;;;;;;;4994740;28;20124;-70
2023/05/02 08:58:06;;;;;;;115.00;20.98;;;;;;;;;;5027396;28;20041;-70
2023/05/02 09:00:39;;;;;;;86.63;16.75;;;;;;;;;;5029435;28;20052;-71
2023/05/02 09:03:10;;;;;;;141.00;22.60;;;;;;;;;;5007931;28;20056;-72
2023/05/02 09:05:40;;;;;;;74.93;13.80;;;;;;;;;;5028979;28;20120;-72
2023/05/02 09:08:07;;;;;;;181.88;20.42;;;;;;;;;;5024755;28;20160;-73
2023/05/02 09:10:37;;;;;;;99.75;17.38;;;;;;;;;;5027316;28;20430;-72
2023/05/02 09:13:23;;;;;;;108.07;17.63;;;;;;;;;;5024704;28;20052;-72
2023/05/02 09:15:56;;;;;;;93.25;15.95;;;;;;;;;;5027074;28;20065;-72
2023/05/02 09:18:24;;;;;;;100.20;15.63;;;;;;;;;;5027917;28;20069;-72
2023/05/02 09:20:50;;;;;;;96.60;14.52;;;;;;;;;;5025874;28;20053;-72
2023/05/02 09:23:17;;;;;;;127.13;17.00;;;;;;;;;;5024223;28;20111;-72
2023/05/02 09:25:44;;;;;;;160.68;17.63;;;;;;;;;;5028209;28;20044;-72
2023/05/02 09:28:11;;;;;;;90.75;13.02;;;;;;;;;;4986393;28;20136;-72
2023/05/02 09:30:37;;;;;;;241.65;21.50;;;;;;;;;;5027404;28;20081;-72
2023/05/02 09:33:04;;;;;;;93.55;12.73;;;;;;;;;;5011119;28;20044;-73
2023/05/02 09:35:31;;;;;;;125.78;13.35;;;;;;;;;;5026493;28;20049;-72
2023/05/02 09:37:57;;;;;;;99.30;12.95;;;;;;;;;;5027986;28;20037;-73
2023/05/02 09:40:24;;;;;;;185.55;16.73;;;;;;;;;;5009865;28;20099;-71
2023/05/02 09:42:51;;;;;;;70.30;11.68;;;;;;;;;;5025893;28;20920;-71
2023/05/02 09:45:22;;;;;;;77.15;12.25;;;;;;;;;;5028242;28;20051;-71
2023/05/02 09:47:50;;;;;;;77.03;12.43;;;;;;;;;;5028430;28;20037;-71
2023/05/02 09:50:35;;;;;;;446.85;37.40;;;;;;;;;;5018337;28;20523;-66
2023/05/02 09:53:06;;;;;;;234.85;27.35;;;;;;;;;;5006324;28;20514;-67
2023/05/02 09:55:33;;;;;;;96.25;23.15;;;;;;;;;;5025050;28;20045;-68
2023/05/02 09:58:00;;;;;;;545.17;58.65;;;;;;;;;;5026787;28;20037;-67
2023/05/02 10:00:39;;;;;;;119.35;27.73;;;;;;;;;;5027405;28;20474;-67
2023/05/02 10:03:07;;;;;;;121.20;28.85;;;;;;;;;;5029325;28;20057;-66
2023/05/02 10:05:37;;;;;;;98.47;28.63;;;;;;;;;;5027646;28;20120;-67
2023/05/02 10:08:08;;;;;;;375.15;44.70;;;;;;;;;;5027379;28;20106;-66
2023/05/02 10:10:35;;;;;;;163.93;33.03;;;;;;;;;;5021913;28;20052;-68
2023/05/02 10:13:02;;;;;;;113.82;39.58;;;;;;;;;;5027271;28;20044;-69
2023/05/02 10:15:35;;;;;;;126.68;34.15;;;;;;;;;;5027395;28;20042;-70
2023/05/02 10:18:06;;;;;;;142.95;30.27;;;;;;;;;;5025554;28;20685;-69
2023/05/02 10:20:36;;;;;;;71.03;22.58;;;;;;;;;;5027444;28;20171;-71
2023/05/02 10:23:03;;;;;;;111.65;26.48;;;;;;;;;;5027153;28;20077;-69
2023/05/02 10:25:31;;;;;;;242.63;32.92;;;;;;;;;;5027088;28;20689;-72
2023/05/02 10:28:01;;;;;;;73.70;23.85;;;;;;;;;;5027476;28;20538;-70
2023/05/02 10:30:27;;;;;;;132.30;24.88;;;;;;;;;;5026943;28;20054;-70
2023/05/02 10:32:58;;;;;;;132.07;30.42;;;;;;;;;;5027362;28;20049;-71
2023/05/02 10:35:25;;;;;;;86.53;23.85;;;;;;;;;;5023889;28;20068;-68
2023/05/02 10:37:52;;;;;;;164.27;28.38;;;;;;;;;;5017931;28;20049;-69
2023/05/02 10:40:18;;;;;;;300.25;35.83;;;;;;;;;;5027809;28;20048;-71
2023/05/02 10:42:46;;;;;;;442.02;50.47;;;;;;;;;;5024784;28;20096;-70
2023/05/02 10:45:33;;;;;;;184.88;29.55;;;;;;;;;;5027752;28;20121;-69
2023/05/02 10:48:19;;;;;;;118.03;26.60;;;;;;;;;;5026660;28;20045;-73
2023/05/02 10:50:46;;;;;;;111.43;25.60;;;;;;;;;;5027110;28;20034;-73
2023/05/02 10:53:26;;;;;;;46.70;19.90;;;;;;;;;;5026500;28;20510;-73
2023/05/02 10:56:11;;;;;;;119.85;25.25;;;;;;;;;;5025497;28;20037;-72
2023/05/02 10:58:38;;;;;;;118.55;22.30;;;;;;;;;;5029983;28;20523;-72
2023/05/02 11:01:23;;;;;;;131.23;19.77;;;;;;;;;;5012141;28;20052;-76
2023/05/02 11:04:03;;;;;;;89.35;30.65;;;;;;;;;;4990777;28;20037;-79
2023/05/02 11:06:36;;;;;;;374.42;49.33;;;;;;;;;;5030374;28;20034;-71
2023/05/02 11:09:16;;;;;;;94.88;35.05;;;;;;;;;;5030147;28;20077;-72
2023/05/02 11:11:43;;;;;;;111.95;35.60;;;;;;;;;;5030010;28;20697;-72
2023/05/02 11:14:10;;;;;;;189.93;42.97;;;;;;;;;;5030741;28;20525;-73
2023/05/02 11:16:55;;;;;;;134.30;41.88;;;;;;;;;;5030827;28;20056;-73
2023/05/02 11:19:22;;;;;;;76.88;52.67;;;;;;;;;;5005765;28;20045;-71
2023/05/02 11:21:49;;;;;;;104.05;54.85;;;;;;;;;;5030487;28;20481;-72
2023/05/02 11:24:35;;;;;;;145.18;67.72;;;;;;;;;;5031745;28;20045;-72
2023/05/02 11:27:20;;;;;;;128.98;62.58;;;;;;;;;;5031415;28;20049;-72
2023/05/02 11:29:56;;;;;;;272.88;64.95;;;;;;;;;;5030880;28;20037;-72
2023/05/02 11:32:24;;;;;;;109.20;53.08;;;;;;;;;;5029774;28;20048;-72
2023/05/02 11:34:51;;;;;;;110.07;78.68;;;;;;;;;;5025503;28;20645;-72
2023/05/02 11:37:19;;;;;;;100.40;87.80;;;;;;;;;;5027008;28;20076;-71
2023/05/02 11:39:45;;;;;;;192.82;96.10;;;;;;;;;;5058894;22;20096;-71
2023/05/02 11:42:28;;;;;;;172.52;88.50;;;;;;;;;;5024035;28;20490;-73
2023/05/02 11:44:55;;;;;;;110.90;80.90;;;;;;;;;;5017914;28;20059;-71
2023/05/02 11:47:22;;;;;;;151.38;81.25;;;;;;;;;;5028310;28;20045;-75
2023/05/02 11:49:50;;;;;;;95.60;69.90;;;;;;;;;;5017612;28;20046;-75
2023/05/02 11:52:16;;;;;;;88.50;65.07;;;;;;;;;;5021918;28;20037;-74
2023/05/02 11:54:43;;;;;;;185.13;70.90;;;;;;;;;;5011853;28;20060;-67
2023/05/02 11:57:10;;;;;;;99.88;65.40;;;;;;;;;;5021487;28;20492;-72
2023/05/02 11:59:53;;;;;;;118.18;67.38;;;;;;;;;;5022369;28;20491;-71
2023/05/02 12:02:33;;;;;;;85.32;68.40;;;;;;;;;;5017694;28;20108;-72
2023/05/02 12:05:01;;;;;;;131.68;65.15;;;;;;;;;;5021112;28;20096;-71
2023/05/02 12:07:35;;;;;;;149.55;68.53;;;;;;;;;;5020462;28;20073;-72
2023/05/02 12:10:02;;;;;;;121.25;57.13;;;;;;;;;;5033073;28;20085;-70
2023/05/02 12:12:29;;;;;;;114.28;59.30;;;;;;;;;;5018076;28;20064;-76
2023/05/02 12:14:55;;;;;;;102.93;52.75;;;;;;;;;;5027928;28;20057;-72
2023/05/02 12:17:22;;;;;;;120.07;54.83;;;;;;;;;;5018091;28;20072;-71
2023/05/02 12:19:49;;;;;;;104.40;54.83;;;;;;;;;;5020541;28;20045;-72
2023/05/02 12:22:16;;;;;;;111.40;52.53;;;;;;;;;;5025890;28;20559;-72
2023/05/02 12:24:43;;;;;;;80.03;48.20;;;;;;;;;;5018848;28;20107;-73
2023/05/02 12:27:10;;;;;;;115.28;53.88;;;;;;;;;;5027254;28;20104;-73
2023/05/02 12:29:44;;;;;;;125.10;56.92;;;;;;;;;;5019815;28;20047;-71
2023/05/02 12:32:11;;;;;;;98.18;48.95;;;;;;;;;;5023443;28;20056;-74
2023/05/02 12:34:38;;;;;;;120.43;50.90;;;;;;;;;;5004781;28;20064;-72
2023/05/02 12:37:05;;;;;;;136.13;52.17;;;;;;;;;;5018477;28;20419;-71
2023/05/02 12:39:39;;;;;;;118.70;49.20;;;;;;;;;;5027702;28;20066;-72
2023/05/02 12:42:10;;;;;;;114.75;17.45;;;;;;;;;;5021714;28;20049;-71
2023/05/02 12:44:40;;;;;;;79.63;15.77;;;;;;;;;;5019665;28;20049;-71
2023/05/02 12:47:07;;;;;;;83.47;27.38;;;;;;;;;;5017861;28;20046;-72
2023/05/02 12:49:52;;;;;;;150.32;32.97;;;;;;;;;;5020716;28;20046;-71
2023/05/02 12:52:20;;;;;;;82.43;30.00;;;;;;;;;;5023676;28;20552;-71
2023/05/02 12:54:47;;;;;;;117.78;37.90;;;;;;;;;;5019801;28;20045;-71
2023/05/02 12:57:23;;;;;;;87.10;38.53;;;;;;;;;;5020055;28;20053;-70
2023/05/02 12:59:51;;;;;;;94.22;38.05;;;;;;;;;;5018199;28;20056;-72
2023/05/02 13:02:18;;;;;;;78.57;34.88;;;;;;;;;;5022223;28;20140;-70
2023/05/02 13:04:45;;;;;;;83.00;38.90;;;;;;;;;;5018832;28;20486;-70
2023/05/02 13:07:12;;;;;;;100.93;37.85;;;;;;;;;;5020234;28;20057;-71
2023/05/02 13:09:38;;;;;;;134.68;43.45;;;;;;;;;;5018493;28;20041;-72
2023/05/02 13:12:05;;;;;;;74.68;38.45;;;;;;;;;;5021350;28;20055;-71
2023/05/02 13:14:31;;;;;;;114.72;39.90;;;;;;;;;;5018373;28;20116;-75
2023/05/02 13:16:58;;;;;;;145.00;42.22;;;;;;;;;;5017018;28;20049;-70
2023/05/02 13:19:25;;;;;;;85.30;35.33;;;;;;;;;;5019713;28;20047;-71
2023/05/02 13:21:51;;;;;;;90.70;36.13;;;;;;;;;;5025037;28;20041;-70
2023/05/02 13:24:18;;;;;;;95.72;41.35;;;;;;;;;;5018243;28;20074;-71
2023/05/02 13:26:44;;;;;;;63.17;35.40;;;;;;;;;;5017758;28;20048;-69
2023/05/02 13:29:11;;;;;;;111.45;37.28;;;;;;;;;;5023835;28;20068;-73
2023/05/02 13:31:38;;;;;;;137.73;42.20;;;;;;;;;;5020947;28;20161;-70
2023/05/02 13:34:04;;;;;;;63.03;33.58;;;;;;;;;;5017389;28;20184;-71
2023/05/02 13:36:31;;;;;;;156.23;41.20;;;;;;;;;;5018450;28;20505;-71
2023/05/02 13:38:58;;;;;;;148.68;44.65;;;;;;;;;;5017403;28;20065;-70
2023/05/02 13:41:24;;;;;;;72.38;42.03;;;;;;;;;;5023554;28;20045;-70
2023/05/02 13:43:52;;;;;;;86.13;42.47;;;;;;;;;;5017311;28;20041;-70
2023/05/02 13:46:18;;;;;;;123.65;41.42;;;;;;;;;;5018939;28;20129;-71
2023/05/02 13:48:45;;;;;;;83.05;38.08;;;;;;;;;;5022470;28;20049;-68
2023/05/02 13:51:11;;;;;;;80.38;38.22;;;;;;;;;;5023032;28;20646;-68
2023/05/02 13:53:38;;;;;;;125.32;42.45;;;;;;;;;;5026262;28;20041;-72
2023/05/02 13:56:04;;;;;;;70.28;32.00;;;;;;;;;;5018794;28;20446;-72
2023/05/02 13:58:31;;;;;;;83.32;35.72;;;;;;;;;;5020475;28;20537;-72
2023/05/02 14:00:58;;;;;;;150.25;47.20;;;;;;;;;;5025435;28;20511;-70
2023/05/02 14:03:25;;;;;;;62.55;35.33;;;;;;;;;;5018370;28;20049;-72
2023/05/02 14:05:52;;;;;;;57.15;37.75;;;;;;;;;;5019589;28;20037;-72
2023/05/02 14:08:18;;;;;;;140.23;38.92;;;;;;;;;;5021146;28;20185;-73
2023/05/02 14:10:45;;;;;;;104.45;32.45;;;;;;;;;;5019645;28;20099;-70
2023/05/02 14:13:12;;;;;;;63.70;27.75;;;;;;;;;;5018117;28;20042;-71
2023/05/02 14:15:38;;;;;;;181.95;39.67;;;;;;;;;;5031279;28;20586;-72
2023/05/02 14:18:05;;;;;;;115.07;28.85;;;;;;;;;;5013356;28;20050;-71
2023/05/02 14:20:32;;;;;;;83.03;23.90;;;;;;;;;;5018898;28;20053;-71
2023/05/02 14:22:58;;;;;;;130.68;28.17;;;;;;;;;;5025400;28;20088;-72
2023/05/02 14:25:25;;;;;;;67.32;22.88;;;;;;;;;;5019384;28;20049;-71